createdAt,value
2018-11-03T00:01:27.743Z,88.13
2018-11-03T00:03:56.484Z,89.00
2018-11-03T00:06:25.216Z,89.10
2018-11-03T00:08:53.949Z,88.37
2018-11-03T00:11:32.592Z,89.00
2018-11-03T00:14:01.395Z,88.43
2018-11-03T00:16:30.127Z,89.33
2018-11-03T00:18:58.863Z,88.17
2018-11-03T00:21:27.597Z,87.13
2018-11-03T00:23:56.338Z,87.47
2018-11-03T00:26:25.071Z,89.23
2018-11-03T00:28:53.795Z,91.43
2018-11-03T00:31:22.556Z,88.10
2018-11-03T00:33:51.300Z,89.37
2018-11-03T00:36:20.023Z,89.57
2018-11-03T00:38:48.784Z,93.23
2018-11-03T00:41:17.740Z,88.83
2018-11-03T00:43:46.487Z,94.83
2018-11-03T00:46:15.233Z,88.53
2018-11-03T00:48:43.961Z,94.43
2018-11-03T00:51:12.702Z,88.40
2018-11-03T00:53:41.429Z,90.00
2018-11-03T00:56:10.201Z,92.27
2018-11-03T00:58:38.928Z,86.57
2018-11-03T01:01:07.663Z,87.60
2018-11-03T01:03:36.406Z,88.43
2018-11-03T01:06:05.139Z,87.47
2018-11-03T01:08:33.872Z,87.83
2018-11-03T01:11:02.608Z,86.50
2018-11-03T01:13:31.444Z,89.03
2018-11-03T01:16:00.179Z,88.73
2018-11-03T01:18:28.941Z,89.20
2018-11-03T01:20:57.724Z,90.80
2018-11-03T01:23:26.449Z,90.83
2018-11-03T01:25:55.192Z,88.03
2018-11-03T01:28:23.921Z,91.50
2018-11-03T01:30:52.660Z,87.87
2018-11-03T01:33:21.392Z,87.43
2018-11-03T01:35:50.136Z,91.17
2018-11-03T01:38:18.895Z,92.23
2018-11-03T01:40:47.627Z,87.53
2018-11-03T01:43:16.373Z,89.57
2018-11-03T01:45:45.107Z,86.40
2018-11-03T01:48:13.840Z,87.63
2018-11-03T01:50:42.576Z,85.67
2018-11-03T01:53:11.308Z,86.63
2018-11-03T01:55:40.041Z,85.40
2018-11-03T01:58:08.780Z,86.67
2018-11-03T02:00:37.512Z,88.63
2018-11-03T02:03:06.245Z,87.57
2018-11-03T02:05:34.980Z,90.40
2018-11-03T02:08:03.873Z,86.60
2018-11-03T02:10:32.609Z,88.27
2018-11-03T02:13:01.345Z,99.43
2018-11-03T02:15:30.085Z,86.80
2018-11-03T02:17:58.847Z,87.07
2018-11-03T02:20:27.563Z,87.90
2018-11-03T02:22:56.303Z,86.93
2018-11-03T02:25:25.040Z,85.17
2018-11-03T02:27:53.777Z,85.73
2018-11-03T02:30:22.507Z,98.53
2018-11-03T02:32:51.245Z,86.70
2018-11-03T02:35:19.981Z,86.70
2018-11-03T02:37:48.717Z,87.43
2018-11-03T02:40:17.480Z,85.53
2018-11-03T02:42:46.187Z,85.30
2018-11-03T02:45:14.912Z,85.20
2018-11-03T02:47:44.220Z,87.47
2018-11-03T02:50:14.049Z,84.23
2018-11-03T02:52:43.144Z,86.47
2018-11-03T02:55:11.880Z,85.33
2018-11-03T02:57:40.613Z,87.90
2018-11-03T03:00:10.220Z,87.00
2018-11-03T03:02:39.011Z,87.23
2018-11-03T03:05:08.712Z,85.70
2018-11-03T03:07:37.457Z,84.27
2018-11-03T03:10:07.601Z,84.83
2018-11-03T03:12:36.596Z,85.37
2018-11-03T03:15:06.250Z,85.70
2018-11-03T03:17:34.972Z,85.53
2018-11-03T03:20:03.967Z,85.00
2018-11-03T03:22:32.696Z,86.37
2018-11-03T03:25:01.489Z,86.47
2018-11-03T03:27:30.356Z,90.40
2018-11-03T03:29:59.084Z,85.53
2018-11-03T03:32:27.860Z,84.63
2018-11-03T03:34:56.749Z,86.33
2018-11-03T03:37:25.482Z,83.83
2018-11-03T03:39:54.224Z,88.30
2018-11-03T03:42:23.000Z,90.10
2018-11-03T03:44:51.740Z,84.87
2018-11-03T03:47:20.474Z,86.50
2018-11-03T03:49:49.205Z,85.77
2018-11-03T03:52:17.932Z,92.03
2018-11-03T03:54:46.660Z,92.07
2018-11-03T03:57:15.389Z,83.07
2018-11-03T03:59:44.116Z,83.33
2018-11-03T04:02:12.848Z,85.03
2018-11-03T04:04:41.576Z,85.03
2018-11-03T04:07:10.355Z,85.60
2018-11-03T04:09:39.093Z,85.33
2018-11-03T04:12:07.816Z,84.67
2018-11-03T04:14:36.549Z,90.40
2018-11-03T04:17:05.385Z,85.23
2018-11-03T04:19:34.107Z,87.93
2018-11-03T04:22:02.852Z,86.50
2018-11-03T04:24:31.585Z,85.50
2018-11-03T04:27:00.311Z,83.43
2018-11-03T04:29:29.036Z,85.57
2018-11-03T04:31:57.776Z,84.00
2018-11-03T04:34:26.505Z,87.10
2018-11-03T04:36:55.231Z,85.47
2018-11-03T04:39:23.964Z,87.57
2018-11-03T04:41:52.812Z,84.73
2018-11-03T04:44:21.541Z,99.27
2018-11-03T04:46:50.277Z,85.93
2018-11-03T04:49:19.004Z,85.63
2018-11-03T04:51:47.743Z,84.10
2018-11-03T04:54:16.502Z,83.97
2018-11-03T04:56:45.201Z,91.30
2018-11-03T04:59:13.929Z,83.37
2018-11-03T05:01:42.723Z,84.97
2018-11-03T05:04:11.456Z,83.53
2018-11-03T05:06:40.191Z,85.50
2018-11-03T05:09:09.996Z,84.50
2018-11-03T05:11:38.996Z,83.30
2018-11-03T05:14:08.696Z,85.57
2018-11-03T05:16:37.664Z,86.00
2018-11-03T05:19:07.107Z,85.57
2018-11-03T05:21:35.848Z,87.30
2018-11-03T05:24:04.748Z,84.97
2018-11-03T05:26:33.481Z,86.30
2018-11-03T05:29:02.213Z,83.30
2018-11-03T05:31:30.936Z,84.30
2018-11-03T05:33:59.668Z,82.87
2018-11-03T05:36:28.449Z,85.53
2018-11-03T05:38:57.167Z,84.40
2018-11-03T05:41:26.001Z,87.53
2018-11-03T05:43:54.716Z,85.27
2018-11-03T05:46:23.998Z,84.20
2018-11-03T05:48:53.283Z,90.03
2018-11-03T05:51:22.008Z,83.50
2018-11-03T05:53:51.900Z,82.93
2018-11-03T05:56:21.073Z,86.97
2018-11-03T05:58:49.883Z,82.63
2018-11-03T06:01:18.553Z,82.93
2018-11-03T06:03:47.304Z,83.43
2018-11-03T06:06:16.124Z,82.37
2018-11-03T06:08:44.871Z,83.27
2018-11-03T06:11:13.808Z,82.57
2018-11-03T06:13:42.612Z,84.00
2018-11-03T06:16:11.513Z,83.50
2018-11-03T06:18:40.595Z,87.23
2018-11-03T06:21:09.572Z,84.33
2018-11-03T06:23:38.378Z,84.87
2018-11-03T06:26:07.260Z,84.87
2018-11-03T06:28:36.012Z,93.53
2018-11-03T06:31:04.898Z,86.83
2018-11-03T06:33:33.629Z,82.93
2018-11-03T06:36:02.373Z,83.87
2018-11-03T06:38:31.092Z,83.53
2018-11-03T06:40:59.837Z,86.33
2018-11-03T06:43:28.563Z,84.40
2018-11-03T06:45:57.305Z,83.33
2018-11-03T06:48:26.032Z,84.03
2018-11-03T06:50:54.764Z,82.97
2018-11-03T06:53:23.505Z,85.23
2018-11-03T06:55:52.247Z,84.17
2018-11-03T06:58:20.959Z,86.10
2018-11-03T07:00:49.700Z,83.37
2018-11-03T07:03:18.420Z,84.53
2018-11-03T07:05:47.157Z,83.00
2018-11-03T07:08:15.884Z,85.90
2018-11-03T07:10:44.624Z,87.07
2018-11-03T07:13:13.373Z,87.70
2018-11-03T07:15:42.099Z,90.07
2018-11-03T07:18:10.824Z,84.87
2018-11-03T07:20:39.600Z,85.87
2018-11-03T07:23:08.338Z,83.67
2018-11-03T07:25:37.059Z,83.13
2018-11-03T07:28:06.005Z,85.30
2018-11-03T07:30:34.749Z,85.97
2018-11-03T07:33:03.477Z,85.50
2018-11-03T07:35:32.203Z,85.97
2018-11-03T07:38:00.944Z,86.20
2018-11-03T07:40:29.672Z,86.77
2018-11-03T07:42:58.400Z,89.80
2018-11-03T07:45:27.144Z,88.03
2018-11-03T07:47:55.938Z,86.20
2018-11-03T07:50:24.635Z,88.67
2018-11-03T07:52:53.377Z,98.70
2018-11-03T07:55:22.474Z,87.53
2018-11-03T07:57:51.204Z,96.27
2018-11-03T08:00:19.977Z,99.80
2018-11-03T08:02:48.660Z,93.83
2018-11-03T08:05:17.384Z,95.67
2018-11-03T08:07:46.125Z,92.27
2018-11-03T08:10:14.857Z,102.17
2018-11-03T08:12:43.590Z,88.53
2018-11-03T08:15:12.331Z,88.90
2018-11-03T08:17:41.239Z,90.00
2018-11-03T08:20:11.024Z,90.27
2018-11-03T08:22:39.797Z,88.10
2018-11-03T08:25:08.727Z,88.90
2018-11-03T08:27:37.504Z,89.97
2018-11-03T08:30:08.647Z,89.00
2018-11-03T08:32:37.412Z,90.27
2018-11-03T08:35:07.172Z,90.87
2018-11-03T08:37:36.032Z,91.30
2018-11-03T08:40:06.172Z,87.97
2018-11-03T08:42:34.908Z,91.23
2018-11-03T08:45:03.635Z,92.70
2018-11-03T08:47:32.378Z,91.10
2018-11-03T08:50:01.108Z,89.97
2018-11-03T08:52:29.836Z,95.33
2018-11-03T08:54:59.109Z,93.00
2018-11-03T08:57:27.857Z,91.13
2018-11-03T08:59:56.786Z,92.43
2018-11-03T09:02:25.379Z,93.57
2018-11-03T09:04:54.111Z,92.50
2018-11-03T09:07:22.844Z,95.33
2018-11-03T09:09:51.580Z,93.37
2018-11-03T09:12:20.308Z,95.93
2018-11-03T09:14:49.038Z,96.20
2018-11-03T09:17:17.763Z,95.60
2018-11-03T09:19:46.500Z,94.10
2018-11-03T09:22:15.240Z,97.40
2018-11-03T09:24:43.981Z,98.30
2018-11-03T09:27:12.708Z,96.37
2018-11-03T09:29:41.487Z,95.10
2018-11-03T09:32:10.164Z,96.47
2018-11-03T09:34:38.958Z,97.13
2018-11-03T09:37:07.630Z,95.97
2018-11-03T09:39:36.356Z,95.33
2018-11-03T09:42:05.928Z,97.77
2018-11-03T09:44:34.664Z,94.47
2018-11-03T09:47:03.388Z,95.50
2018-11-03T09:49:33.259Z,97.37
2018-11-03T09:52:02.573Z,96.80
2018-11-03T09:54:31.309Z,97.77
2018-11-03T09:57:00.041Z,94.47
2018-11-03T09:59:28.789Z,96.70
2018-11-03T10:01:57.507Z,95.30
2018-11-03T10:04:26.553Z,95.43
2018-11-03T10:06:55.287Z,101.53
2018-11-03T10:09:24.034Z,95.33
2018-11-03T10:11:52.771Z,95.50
2018-11-03T10:14:21.544Z,97.53
2018-11-03T10:16:50.288Z,95.23
2018-11-03T10:19:19.012Z,95.23
2018-11-03T10:21:47.749Z,98.97
2018-11-03T10:24:16.476Z,95.97
2018-11-03T10:26:45.208Z,93.73
2018-11-03T10:29:13.942Z,97.27
2018-11-03T10:31:42.668Z,97.73
2018-11-03T10:34:11.417Z,97.60
2018-11-03T10:36:40.172Z,95.97
2018-11-03T10:39:10.398Z,100.03
2018-11-03T10:41:39.143Z,97.37
2018-11-03T10:44:07.899Z,95.37
2018-11-03T10:46:36.841Z,96.37
2018-11-03T10:49:05.564Z,94.80
2018-11-03T10:51:34.308Z,95.30
2018-11-03T10:54:03.072Z,95.20
2018-11-03T10:56:31.775Z,98.83
2018-11-03T10:59:00.508Z,97.80
2018-11-03T11:01:34.720Z,100.23
2018-11-03T11:04:08.827Z,96.10
2018-11-03T11:06:43.116Z,94.90
2018-11-03T11:09:17.140Z,95.40
2018-11-03T11:11:51.392Z,97.67
2018-11-03T11:14:20.469Z,98.03
2018-11-03T11:16:49.286Z,96.00
2018-11-03T11:19:17.907Z,97.03
2018-11-03T11:21:46.689Z,94.63
2018-11-03T11:24:15.777Z,98.00
2018-11-03T11:26:44.354Z,95.67
2018-11-03T11:29:13.072Z,95.73
2018-11-03T11:31:41.804Z,95.63
2018-11-03T11:34:10.541Z,96.77
2018-11-03T11:36:39.277Z,97.47
2018-11-03T11:39:08.281Z,97.07
2018-11-03T11:41:37.012Z,96.93
2018-11-03T11:44:05.735Z,94.90
2018-11-03T11:46:34.465Z,95.13
2018-11-03T11:49:03.351Z,95.23
2018-11-03T11:51:32.081Z,95.20
2018-11-03T11:54:00.813Z,95.70
2018-11-03T11:56:29.548Z,93.80
2018-11-03T11:58:58.440Z,94.13
2018-11-03T12:01:27.181Z,94.50
2018-11-03T12:03:55.912Z,98.03
2018-11-03T12:06:24.640Z,96.70
2018-11-03T12:08:53.383Z,93.93
2018-11-03T12:11:22.101Z,94.37
2018-11-03T12:13:50.837Z,93.60
2018-11-03T12:16:19.698Z,97.07
2018-11-03T12:18:48.297Z,94.83
2018-11-03T12:21:17.030Z,95.93
2018-11-03T12:23:46.255Z,98.30
2018-11-03T12:26:14.985Z,103.53
2018-11-03T12:28:43.724Z,94.93
2018-11-03T12:31:12.460Z,102.87
2018-11-03T12:33:41.188Z,108.87
2018-11-03T12:36:09.936Z,99.73
2018-11-03T12:38:38.663Z,100.67
2018-11-03T12:41:07.406Z,95.10
2018-11-03T12:43:36.120Z,96.43
2018-11-03T12:46:04.976Z,99.40
2018-11-03T12:48:33.680Z,96.60
2018-11-03T12:51:02.433Z,95.93
2018-11-03T12:53:31.173Z,95.63
2018-11-03T12:55:59.912Z,98.83
2018-11-03T12:58:28.644Z,95.87
2018-11-03T13:00:57.385Z,94.30
2018-11-03T13:03:26.422Z,99.23
2018-11-03T13:05:55.157Z,95.07
2018-11-03T13:08:23.884Z,95.90
2018-11-03T13:10:53.030Z,94.17
2018-11-03T13:13:21.732Z,97.50
2018-11-03T13:15:50.468Z,93.43
2018-11-03T13:18:20.464Z,94.87
2018-11-03T13:20:50.140Z,97.13
2018-11-03T13:23:29.404Z,95.13
2018-11-03T13:25:59.176Z,103.07
2018-11-03T13:28:27.905Z,122.60
2018-11-03T13:30:56.644Z,98.40
2018-11-03T13:33:25.372Z,98.40
2018-11-03T13:35:54.977Z,102.57
2018-11-03T13:38:23.931Z,102.27
2018-11-03T13:40:53.061Z,99.83
2018-11-03T13:43:21.701Z,97.00
2018-11-03T13:45:50.424Z,93.13
2018-11-03T13:48:19.171Z,99.80
2018-11-03T13:50:47.952Z,95.33
2018-11-03T13:53:16.689Z,94.07
2018-11-03T13:55:45.425Z,93.47
2018-11-03T13:58:14.164Z,100.83
2018-11-03T14:00:42.902Z,92.60
2018-11-03T14:03:11.634Z,99.80
2018-11-03T14:05:40.356Z,94.10
2018-11-03T14:08:09.117Z,96.73
2018-11-03T14:10:37.844Z,98.93
2018-11-03T14:13:06.576Z,95.37
2018-11-03T14:15:35.361Z,96.97
2018-11-03T14:18:04.048Z,93.80
2018-11-03T14:20:32.768Z,93.77
2018-11-03T14:23:20.206Z,94.97
2018-11-03T14:25:48.912Z,96.60
2018-11-03T14:28:17.652Z,99.07
2018-11-03T14:30:46.384Z,97.90
2018-11-03T14:33:15.179Z,97.43
2018-11-03T14:35:43.888Z,96.10
2018-11-03T14:38:13.087Z,97.60
2018-11-03T14:40:41.821Z,95.73
2018-11-03T14:43:10.577Z,95.40
2018-11-03T14:45:39.316Z,103.70
2018-11-03T14:48:08.159Z,94.70
2018-11-03T14:50:36.892Z,95.27
2018-11-03T14:53:05.628Z,98.60
2018-11-03T14:55:34.395Z,99.13
2018-11-03T14:58:03.161Z,104.70
2018-11-03T15:00:35.348Z,113.10
2018-11-03T15:03:04.646Z,99.33
2018-11-03T15:05:33.397Z,92.50
2018-11-03T15:08:02.132Z,94.87
2018-11-03T15:10:30.868Z,95.40
2018-11-03T15:12:59.596Z,93.53
2018-11-03T15:15:28.340Z,93.17
2018-11-03T15:17:57.056Z,92.77
2018-11-03T15:20:25.793Z,92.33
2018-11-03T15:22:54.527Z,94.87
2018-11-03T15:25:23.274Z,95.60
2018-11-03T15:27:52.004Z,95.17
2018-11-03T15:30:20.735Z,92.37
2018-11-03T15:32:49.469Z,92.37
2018-11-03T15:35:18.225Z,92.87
2018-11-03T15:37:46.957Z,95.97
2018-11-03T15:40:16.164Z,90.77
2018-11-03T15:42:45.164Z,95.20
2018-11-03T15:45:15.072Z,93.40
2018-11-03T15:47:44.424Z,94.47
2018-11-03T15:50:13.980Z,96.70
2018-11-03T15:52:43.293Z,98.60
2018-11-03T15:55:12.120Z,103.30
2018-11-03T15:57:40.863Z,119.47
2018-11-03T16:00:13.948Z,100.10
2018-11-03T16:02:42.693Z,100.00
2018-11-03T16:05:11.428Z,101.30
2018-11-03T16:07:40.173Z,98.20
2018-11-03T16:10:09.936Z,99.00
2018-11-03T16:12:38.881Z,95.93
2018-11-03T16:15:08.985Z,93.33
2018-11-03T16:17:38.001Z,96.83
2018-11-03T16:20:07.483Z,91.37
2018-11-03T16:22:36.448Z,92.47
2018-11-03T16:25:06.032Z,134.93
2018-11-03T16:27:34.760Z,95.10
2018-11-03T16:30:03.879Z,98.00
2018-11-03T16:32:32.792Z,93.07
2018-11-03T16:35:01.352Z,98.87
2018-11-03T16:37:30.172Z,92.23
2018-11-03T16:39:58.917Z,96.13
2018-11-03T16:42:27.665Z,102.10
2018-11-03T16:44:56.396Z,95.23
2018-11-03T16:47:25.128Z,95.20
2018-11-03T16:49:53.859Z,94.40
2018-11-03T16:52:22.715Z,95.30
2018-11-03T16:54:51.384Z,95.60
2018-11-03T16:57:20.116Z,97.50
2018-11-03T16:59:48.869Z,93.03
2018-11-03T17:02:17.592Z,94.93
2018-11-03T17:04:46.341Z,92.00
2018-11-03T17:07:15.084Z,99.27
2018-11-03T17:09:43.833Z,94.13
2018-11-03T17:12:12.647Z,94.77
2018-11-03T17:14:41.309Z,96.57
2018-11-03T17:17:10.041Z,92.50
2018-11-03T17:19:38.777Z,93.87
2018-11-03T17:22:07.524Z,91.33
2018-11-03T17:24:38.091Z,92.87
2018-11-03T17:27:07.724Z,101.80
2018-11-03T17:29:36.477Z,95.67
2018-11-03T17:32:05.677Z,91.57
2018-11-03T17:34:34.828Z,92.47
2018-11-03T17:37:03.776Z,90.93
2018-11-03T17:39:32.523Z,93.60
2018-11-03T17:42:01.260Z,98.33
2018-11-03T17:44:29.990Z,96.40
2018-11-03T17:46:58.783Z,94.73
2018-11-03T17:49:27.507Z,91.60
2018-11-03T17:51:56.256Z,96.37
2018-11-03T17:54:24.984Z,92.63
2018-11-03T17:56:53.724Z,92.27
2018-11-03T17:59:22.493Z,95.63
2018-11-03T18:01:51.227Z,92.07
2018-11-03T18:04:19.956Z,91.17
2018-11-03T18:06:48.699Z,100.27
2018-11-03T18:09:17.424Z,93.77
2018-11-03T18:11:46.161Z,96.53
2018-11-03T18:14:14.912Z,91.50
2018-11-03T18:16:43.646Z,95.87
2018-11-03T18:19:12.400Z,92.47
2018-11-03T18:21:41.132Z,94.90
2018-11-03T18:24:10.741Z,91.77
2018-11-03T18:26:39.470Z,90.07
2018-11-03T18:29:08.196Z,92.67
2018-11-03T18:31:36.917Z,91.63
2018-11-03T18:34:05.839Z,92.37
2018-11-03T18:36:34.904Z,90.13
2018-11-03T18:39:04.497Z,93.40
2018-11-03T18:41:34.050Z,92.77
2018-11-03T18:44:02.774Z,94.20
2018-11-03T18:46:31.535Z,100.27
2018-11-03T18:49:00.700Z,92.17
2018-11-03T18:51:29.437Z,94.00
2018-11-03T18:53:58.173Z,95.70
2018-11-03T18:56:26.920Z,95.20
2018-11-03T18:58:55.692Z,89.70
2018-11-03T19:01:24.428Z,91.30
2018-11-03T19:03:53.169Z,92.90
2018-11-03T19:06:22.523Z,90.97
2018-11-03T19:08:51.254Z,91.90
2018-11-03T19:11:20.058Z,92.53
2018-11-03T19:13:48.799Z,91.53
2018-11-03T19:16:17.528Z,90.73
2018-11-03T19:18:46.269Z,89.60
2018-11-03T19:21:15.005Z,91.00
2018-11-03T19:23:43.925Z,95.20
2018-11-03T19:26:12.589Z,90.87
2018-11-03T19:28:41.369Z,90.53
2018-11-03T19:31:10.126Z,90.30
2018-11-03T19:33:38.849Z,92.80
2018-11-03T19:36:07.592Z,90.53
2018-11-03T19:38:36.325Z,90.13
2018-11-03T19:41:05.238Z,97.13
2018-11-03T19:43:33.976Z,91.67
2018-11-03T19:46:02.727Z,91.43
2018-11-03T19:48:31.456Z,90.10
2018-11-03T19:51:00.207Z,95.30
2018-11-03T19:53:28.945Z,93.87
2018-11-03T19:55:57.680Z,93.90
2018-11-03T19:58:26.417Z,98.30
2018-11-03T20:00:55.165Z,89.00
2018-11-03T20:03:23.935Z,96.17
2018-11-03T20:05:52.632Z,91.73
2018-11-03T20:08:21.436Z,96.53
2018-11-03T20:10:50.186Z,92.93
2018-11-03T20:13:18.972Z,93.07
2018-11-03T20:15:47.708Z,89.43
2018-11-03T20:18:16.431Z,88.33
2018-11-03T20:20:45.205Z,90.27
2018-11-03T20:23:13.985Z,96.80
2018-11-03T20:25:42.707Z,91.70
2018-11-03T20:28:11.441Z,90.70
2018-11-03T20:30:40.209Z,94.17
2018-11-03T20:33:08.948Z,89.73
2018-11-03T20:35:37.672Z,89.17
2018-11-03T20:38:06.500Z,89.13
2018-11-03T20:40:35.239Z,92.67
2018-11-03T20:43:03.968Z,98.57
2018-11-03T20:45:32.701Z,89.93
2018-11-03T20:48:01.428Z,89.97
2018-11-03T20:50:30.164Z,89.80
2018-11-03T20:52:58.900Z,89.47
2018-11-03T20:55:27.629Z,88.87
2018-11-03T20:57:56.364Z,88.07
2018-11-03T21:00:25.105Z,88.33
2018-11-03T21:02:53.836Z,91.33
2018-11-03T21:05:22.564Z,86.90
2018-11-03T21:07:51.325Z,90.53
2018-11-03T21:10:20.048Z,90.37
2018-11-03T21:12:48.788Z,88.67
2018-11-03T21:15:17.532Z,88.73
2018-11-03T21:17:46.284Z,88.67
2018-11-03T21:20:15.127Z,86.90
2018-11-03T21:22:43.872Z,90.60
2018-11-03T21:25:12.565Z,88.13
2018-11-03T21:27:41.297Z,90.37
2018-11-03T21:30:10.751Z,88.10
2018-11-03T21:32:39.725Z,91.37
2018-11-03T21:35:08.359Z,89.53
2018-11-03T21:37:37.400Z,89.27
2018-11-03T21:40:06.569Z,92.83
2018-11-03T21:42:35.292Z,88.90
2018-11-03T21:45:04.048Z,94.53
2018-11-03T21:47:32.768Z,93.23
2018-11-03T21:50:01.509Z,93.53
2018-11-03T21:52:30.244Z,88.10
2018-11-03T21:54:58.980Z,91.50
2018-11-03T21:57:27.820Z,86.70
2018-11-03T21:59:56.551Z,89.67
2018-11-03T22:02:25.320Z,90.37
2018-11-03T22:04:54.052Z,92.60
2018-11-03T22:07:22.788Z,93.47
2018-11-03T22:09:51.521Z,87.10
2018-11-03T22:12:20.249Z,92.90
2018-11-03T22:14:48.980Z,87.90
2018-11-03T22:17:17.723Z,85.50
2018-11-03T22:19:46.456Z,86.07
2018-11-03T22:22:15.196Z,87.20
2018-11-03T22:24:43.932Z,89.37
2018-11-03T22:27:12.989Z,90.60
2018-11-03T22:29:41.715Z,87.17
2018-11-03T22:32:10.464Z,86.27
2018-11-03T22:34:39.189Z,87.30
2018-11-03T22:37:07.928Z,90.23
2018-11-03T22:39:36.676Z,88.80
2018-11-03T22:42:05.569Z,89.90
2018-11-03T22:44:34.320Z,87.10
2018-11-03T22:47:03.064Z,90.30
2018-11-03T22:49:31.794Z,87.63
2018-11-03T22:52:00.625Z,89.07
2018-11-03T22:54:29.256Z,86.87
2018-11-03T22:56:58.060Z,88.30
2018-11-03T22:59:26.897Z,85.57
2018-11-03T23:01:55.496Z,85.30
2018-11-03T23:04:24.185Z,88.30
2018-11-03T23:06:52.920Z,88.47
2018-11-03T23:09:21.771Z,87.13
2018-11-03T23:11:50.535Z,86.13
2018-11-03T23:14:19.661Z,87.43
2018-11-03T23:16:48.412Z,85.77
2018-11-03T23:19:17.190Z,90.07
2018-11-03T23:21:45.881Z,87.00
2018-11-03T23:24:14.616Z,85.23
2018-11-03T23:26:43.355Z,101.67
2018-11-03T23:29:12.076Z,85.07
2018-11-03T23:31:40.828Z,85.47
2018-11-03T23:34:09.568Z,87.33
2018-11-03T23:36:38.301Z,88.57
2018-11-03T23:39:08.433Z,86.87
2018-11-03T23:41:37.353Z,86.97
2018-11-03T23:44:06.306Z,103.93
2018-11-03T23:46:35.140Z,90.93
2018-11-03T23:49:03.889Z,86.43
2018-11-03T23:51:33.030Z,89.73
2018-11-03T23:54:01.776Z,83.60
2018-11-03T23:56:30.804Z,86.23
2018-11-03T23:58:59.530Z,86.33
